sensor_id;sensor_type;location;lat;lon;timestamp;P1;durP1;ratioP1;P2;durP2;ratioP2
20283;SDS011;10301;50.832;4.080;2022-07-06T00:02:14;8.27;;;3.00;;
20283;SDS011;10301;50.832;4.080;2022-07-06T00:04:40;5.45;;;2.50;;
20283;SDS011;10301;50.832;4.080;2022-07-06T00:07:05;7.50;;;2.50;;
20283;SDS011;10301;50.832;4.080;2022-07-06T00:09:31;6.18;;;3.00;;
20283;SDS011;10301;50.832;4.080;2022-07-06T00:11:57;5.88;;;2.78;;
20283;SDS011;10301;50.832;4.080;2022-07-06T00:14:23;6.00;;;3.17;;
20283;SDS011;10301;50.832;4.080;2022-07-06T00:16:49;6.22;;;2.90;;
20283;SDS011;10301;50.832;4.080;2022-07-06T00:19:15;9.75;;;3.28;;
20283;SDS011;10301;50.832;4.080;2022-07-06T00:21:41;7.93;;;3.40;;
20283;SDS011;10301;50.832;4.080;2022-07-06T00:24:06;5.07;;;2.70;;
20283;SDS011;10301;50.832;4.080;2022-07-06T00:26:32;6.35;;;2.88;;
20283;SDS011;10301;50.832;4.080;2022-07-06T00:28:58;4.65;;;2.47;;
20283;SDS011;10301;50.832;4.080;2022-07-06T00:31:23;5.32;;;3.00;;
20283;SDS011;10301;50.832;4.080;2022-07-06T00:33:49;5.82;;;3.25;;
20283;SDS011;10301;50.832;4.080;2022-07-06T00:36:14;8.80;;;3.67;;
20283;SDS011;10301;50.832;4.080;2022-07-06T00:38:40;4.70;;;2.88;;
20283;SDS011;10301;50.832;4.080;2022-07-06T00:41:06;9.15;;;3.38;;
20283;SDS011;10301;50.832;4.080;2022-07-06T00:46:17;8.10;;;3.30;;
20283;SDS011;10301;50.832;4.080;2022-07-06T00:48:43;6.57;;;3.10;;
20283;SDS011;10301;50.832;4.080;2022-07-06T00:51:08;8.10;;;3.20;;
20283;SDS011;10301;50.832;4.080;2022-07-06T00:53:35;8.68;;;3.50;;
20283;SDS011;10301;50.832;4.080;2022-07-06T00:56:02;9.40;;;3.83;;
20283;SDS011;10301;50.832;4.080;2022-07-06T00:58:27;6.70;;;3.92;;
20283;SDS011;10301;50.832;4.080;2022-07-06T01:00:53;7.10;;;3.65;;
20283;SDS011;10301;50.832;4.080;2022-07-06T01:03:19;6.50;;;3.38;;
20283;SDS011;10301;50.832;4.080;2022-07-06T01:05:44;8.65;;;3.45;;
20283;SDS011;10301;50.832;4.080;2022-07-06T01:08:10;7.03;;;3.78;;
20283;SDS011;10301;50.832;4.080;2022-07-06T01:10:37;6.28;;;3.38;;
20283;SDS011;10301;50.832;4.080;2022-07-06T01:13:02;7.05;;;3.83;;
20283;SDS011;10301;50.832;4.080;2022-07-06T01:15:29;8.05;;;3.80;;
20283;SDS011;10301;50.832;4.080;2022-07-06T01:17:54;8.23;;;3.90;;
20283;SDS011;10301;50.832;4.080;2022-07-06T01:20:21;7.10;;;3.55;;
20283;SDS011;10301;50.832;4.080;2022-07-06T01:22:48;10.82;;;3.75;;
20283;SDS011;10301;50.832;4.080;2022-07-06T01:25:15;9.48;;;4.28;;
20283;SDS011;10301;50.832;4.080;2022-07-06T01:27:41;6.38;;;3.42;;
20283;SDS011;10301;50.832;4.080;2022-07-06T01:30:09;8.35;;;4.00;;
20283;SDS011;10301;50.832;4.080;2022-07-06T01:32:36;7.85;;;4.15;;
20283;SDS011;10301;50.832;4.080;2022-07-06T01:35:03;8.88;;;4.03;;
20283;SDS011;10301;50.832;4.080;2022-07-06T01:37:31;8.73;;;3.90;;
20283;SDS011;10301;50.832;4.080;2022-07-06T01:39:57;6.35;;;3.78;;
20283;SDS011;10301;50.832;4.080;2022-07-06T01:42:27;8.25;;;3.67;;
20283;SDS011;10301;50.832;4.080;2022-07-06T01:44:53;8.15;;;3.40;;
20283;SDS011;10301;50.832;4.080;2022-07-06T01:47:19;9.02;;;3.35;;
20283;SDS011;10301;50.832;4.080;2022-07-06T01:49:45;9.18;;;3.90;;
20283;SDS011;10301;50.832;4.080;2022-07-06T01:52:11;5.25;;;3.50;;
20283;SDS011;10301;50.832;4.080;2022-07-06T01:54:36;8.02;;;3.90;;
20283;SDS011;10301;50.832;4.080;2022-07-06T01:57:02;9.35;;;3.78;;
20283;SDS011;10301;50.832;4.080;2022-07-06T01:59:28;8.20;;;3.90;;
20283;SDS011;10301;50.832;4.080;2022-07-06T02:01:54;8.02;;;4.13;;
20283;SDS011;10301;50.832;4.080;2022-07-06T02:04:20;9.25;;;3.92;;
20283;SDS011;10301;50.832;4.080;2022-07-06T02:06:46;10.70;;;4.07;;
20283;SDS011;10301;50.832;4.080;2022-07-06T02:09:11;7.95;;;4.05;;
20283;SDS011;10301;50.832;4.080;2022-07-06T02:11:37;8.13;;;4.47;;
20283;SDS011;10301;50.832;4.080;2022-07-06T02:14:03;7.40;;;3.33;;
20283;SDS011;10301;50.832;4.080;2022-07-06T02:16:29;8.05;;;3.55;;
20283;SDS011;10301;50.832;4.080;2022-07-06T02:18:54;6.55;;;3.67;;
20283;SDS011;10301;50.832;4.080;2022-07-06T02:21:20;8.35;;;4.13;;
20283;SDS011;10301;50.832;4.080;2022-07-06T02:23:45;8.50;;;4.15;;
20283;SDS011;10301;50.832;4.080;2022-07-06T02:26:11;7.68;;;3.60;;
20283;SDS011;10301;50.832;4.080;2022-07-06T02:28:37;11.02;;;4.80;;
20283;SDS011;10301;50.832;4.080;2022-07-06T02:31:03;8.85;;;4.13;;
20283;SDS011;10301;50.832;4.080;2022-07-06T02:33:29;8.27;;;5.28;;
20283;SDS011;10301;50.832;4.080;2022-07-06T02:35:54;9.68;;;4.80;;
20283;SDS011;10301;50.832;4.080;2022-07-06T02:38:20;9.38;;;5.25;;
20283;SDS011;10301;50.832;4.080;2022-07-06T02:40:46;8.50;;;4.55;;
20283;SDS011;10301;50.832;4.080;2022-07-06T02:43:12;8.50;;;4.47;;
20283;SDS011;10301;50.832;4.080;2022-07-06T02:45:38;8.48;;;4.60;;
20283;SDS011;10301;50.832;4.080;2022-07-06T02:48:03;9.82;;;4.70;;
20283;SDS011;10301;50.832;4.080;2022-07-06T02:50:29;8.27;;;4.50;;
20283;SDS011;10301;50.832;4.080;2022-07-06T02:52:55;9.77;;;4.72;;
20283;SDS011;10301;50.832;4.080;2022-07-06T02:55:20;9.07;;;4.68;;
20283;SDS011;10301;50.832;4.080;2022-07-06T02:57:46;6.32;;;4.50;;
20283;SDS011;10301;50.832;4.080;2022-07-06T03:00:12;10.07;;;5.50;;
20283;SDS011;10301;50.832;4.080;2022-07-06T03:02:38;12.48;;;5.22;;
20283;SDS011;10301;50.832;4.080;2022-07-06T03:05:04;7.93;;;5.00;;
20283;SDS011;10301;50.832;4.080;2022-07-06T03:07:30;9.32;;;4.97;;
20283;SDS011;10301;50.832;4.080;2022-07-06T03:09:56;9.48;;;5.38;;
20283;SDS011;10301;50.832;4.080;2022-07-06T03:12:21;8.38;;;4.72;;
20283;SDS011;10301;50.832;4.080;2022-07-06T03:14:47;11.10;;;4.72;;
20283;SDS011;10301;50.832;4.080;2022-07-06T03:17:13;11.50;;;5.00;;
20283;SDS011;10301;50.832;4.080;2022-07-06T03:19:38;8.60;;;4.93;;
20283;SDS011;10301;50.832;4.080;2022-07-06T03:22:04;11.82;;;5.70;;
20283;SDS011;10301;50.832;4.080;2022-07-06T03:24:30;9.10;;;5.07;;
20283;SDS011;10301;50.832;4.080;2022-07-06T03:26:55;10.13;;;4.93;;
20283;SDS011;10301;50.832;4.080;2022-07-06T03:29:21;13.80;;;5.68;;
20283;SDS011;10301;50.832;4.080;2022-07-06T03:31:47;12.10;;;5.38;;
20283;SDS011;10301;50.832;4.080;2022-07-06T03:34:13;9.07;;;5.32;;
20283;SDS011;10301;50.832;4.080;2022-07-06T03:36:38;7.45;;;4.90;;
20283;SDS011;10301;50.832;4.080;2022-07-06T03:39:05;11.38;;;5.93;;
20283;SDS011;10301;50.832;4.080;2022-07-06T03:41:31;10.82;;;5.97;;
20283;SDS011;10301;50.832;4.080;2022-07-06T03:43:57;10.35;;;5.03;;
20283;SDS011;10301;50.832;4.080;2022-07-06T03:46:23;10.77;;;5.90;;
20283;SDS011;10301;50.832;4.080;2022-07-06T03:48:48;11.70;;;5.70;;
20283;SDS011;10301;50.832;4.080;2022-07-06T03:51:14;15.85;;;6.40;;
20283;SDS011;10301;50.832;4.080;2022-07-06T03:53:40;12.38;;;6.93;;
20283;SDS011;10301;50.832;4.080;2022-07-06T03:56:05;15.48;;;6.00;;
20283;SDS011;10301;50.832;4.080;2022-07-06T03:58:49;11.07;;;6.45;;
20283;SDS011;10301;50.832;4.080;2022-07-06T04:01:15;12.85;;;6.05;;
20283;SDS011;10301;50.832;4.080;2022-07-06T04:03:40;9.85;;;5.47;;
20283;SDS011;10301;50.832;4.080;2022-07-06T04:06:06;11.77;;;6.93;;
20283;SDS011;10301;50.832;4.080;2022-07-06T04:08:32;10.00;;;5.80;;
20283;SDS011;10301;50.832;4.080;2022-07-06T04:10:57;11.27;;;6.50;;
20283;SDS011;10301;50.832;4.080;2022-07-06T04:13:26;9.40;;;5.65;;
20283;SDS011;10301;50.832;4.080;2022-07-06T04:15:52;10.40;;;6.70;;
20283;SDS011;10301;50.832;4.080;2022-07-06T04:18:17;14.77;;;6.35;;
20283;SDS011;10301;50.832;4.080;2022-07-06T04:20:43;13.98;;;6.30;;
20283;SDS011;10301;50.832;4.080;2022-07-06T04:23:08;13.27;;;6.47;;
20283;SDS011;10301;50.832;4.080;2022-07-06T04:25:34;11.70;;;6.53;;
20283;SDS011;10301;50.832;4.080;2022-07-06T04:28:00;11.52;;;6.88;;
20283;SDS011;10301;50.832;4.080;2022-07-06T04:30:26;13.15;;;6.45;;
20283;SDS011;10301;50.832;4.080;2022-07-06T04:32:51;12.25;;;6.75;;
20283;SDS011;10301;50.832;4.080;2022-07-06T04:35:17;14.00;;;7.60;;
20283;SDS011;10301;50.832;4.080;2022-07-06T04:37:43;18.52;;;7.93;;
20283;SDS011;10301;50.832;4.080;2022-07-06T04:40:10;13.13;;;7.07;;
20283;SDS011;10301;50.832;4.080;2022-07-06T04:42:37;10.63;;;7.20;;
20283;SDS011;10301;50.832;4.080;2022-07-06T04:45:03;11.95;;;6.90;;
20283;SDS011;10301;50.832;4.080;2022-07-06T04:47:29;10.77;;;6.63;;
20283;SDS011;10301;50.832;4.080;2022-07-06T04:49:55;11.35;;;7.32;;
20283;SDS011;10301;50.832;4.080;2022-07-06T04:52:20;11.68;;;7.22;;
20283;SDS011;10301;50.832;4.080;2022-07-06T04:54:46;14.30;;;7.32;;
20283;SDS011;10301;50.832;4.080;2022-07-06T04:57:12;16.08;;;8.73;;
20283;SDS011;10301;50.832;4.080;2022-07-06T04:59:37;13.25;;;7.45;;
20283;SDS011;10301;50.832;4.080;2022-07-06T05:02:03;12.02;;;6.68;;
20283;SDS011;10301;50.832;4.080;2022-07-06T05:04:29;11.00;;;6.15;;
20283;SDS011;10301;50.832;4.080;2022-07-06T05:06:54;11.70;;;6.50;;
20283;SDS011;10301;50.832;4.080;2022-07-06T05:09:20;10.90;;;6.05;;
20283;SDS011;10301;50.832;4.080;2022-07-06T05:11:46;10.77;;;5.93;;
20283;SDS011;10301;50.832;4.080;2022-07-06T05:14:11;11.10;;;6.25;;
20283;SDS011;10301;50.832;4.080;2022-07-06T05:16:37;11.07;;;5.57;;
20283;SDS011;10301;50.832;4.080;2022-07-06T05:19:02;15.75;;;6.35;;
20283;SDS011;10301;50.832;4.080;2022-07-06T05:21:28;13.48;;;5.93;;
20283;SDS011;10301;50.832;4.080;2022-07-06T05:23:54;9.25;;;5.93;;
20283;SDS011;10301;50.832;4.080;2022-07-06T05:26:20;11.45;;;6.15;;
20283;SDS011;10301;50.832;4.080;2022-07-06T05:28:45;14.32;;;5.88;;
20283;SDS011;10301;50.832;4.080;2022-07-06T05:31:11;9.27;;;5.35;;
20283;SDS011;10301;50.832;4.080;2022-07-06T05:33:36;11.90;;;6.10;;
20283;SDS011;10301;50.832;4.080;2022-07-06T05:36:02;9.15;;;5.50;;
20283;SDS011;10301;50.832;4.080;2022-07-06T05:38:28;9.70;;;5.57;;
20283;SDS011;10301;50.832;4.080;2022-07-06T05:40:54;9.38;;;5.88;;
20283;SDS011;10301;50.832;4.080;2022-07-06T05:43:19;11.18;;;5.97;;
20283;SDS011;10301;50.832;4.080;2022-07-06T05:45:45;10.85;;;6.05;;
20283;SDS011;10301;50.832;4.080;2022-07-06T05:48:11;11.18;;;5.97;;
20283;SDS011;10301;50.832;4.080;2022-07-06T05:50:55;12.52;;;6.15;;
20283;SDS011;10301;50.832;4.080;2022-07-06T05:53:20;10.60;;;6.28;;
20283;SDS011;10301;50.832;4.080;2022-07-06T05:55:49;11.30;;;6.45;;
20283;SDS011;10301;50.832;4.080;2022-07-06T05:58:15;11.02;;;6.63;;
20283;SDS011;10301;50.832;4.080;2022-07-06T06:00:41;12.38;;;6.63;;
20283;SDS011;10301;50.832;4.080;2022-07-06T06:03:06;13.57;;;6.75;;
20283;SDS011;10301;50.832;4.080;2022-07-06T06:05:32;11.68;;;6.35;;
20283;SDS011;10301;50.832;4.080;2022-07-06T06:07:58;13.85;;;6.35;;
20283;SDS011;10301;50.832;4.080;2022-07-06T06:10:23;13.20;;;6.57;;
20283;SDS011;10301;50.832;4.080;2022-07-06T06:12:49;12.07;;;6.22;;
20283;SDS011;10301;50.832;4.080;2022-07-06T06:15:16;12.25;;;6.25;;
20283;SDS011;10301;50.832;4.080;2022-07-06T06:17:42;12.57;;;6.15;;
20283;SDS011;10301;50.832;4.080;2022-07-06T06:20:09;14.07;;;6.32;;
20283;SDS011;10301;50.832;4.080;2022-07-06T06:22:49;16.35;;;5.88;;
20283;SDS011;10301;50.832;4.080;2022-07-06T06:25:26;13.18;;;6.50;;
20283;SDS011;10301;50.832;4.080;2022-07-06T06:27:52;14.85;;;6.00;;
20283;SDS011;10301;50.832;4.080;2022-07-06T06:30:18;14.00;;;6.00;;
20283;SDS011;10301;50.832;4.080;2022-07-06T06:32:44;10.23;;;5.95;;
20283;SDS011;10301;50.832;4.080;2022-07-06T06:35:09;12.02;;;6.20;;
20283;SDS011;10301;50.832;4.080;2022-07-06T06:37:36;12.15;;;6.13;;
20283;SDS011;10301;50.832;4.080;2022-07-06T06:40:02;17.52;;;6.13;;
20283;SDS011;10301;50.832;4.080;2022-07-06T06:42:30;17.58;;;6.10;;
20283;SDS011;10301;50.832;4.080;2022-07-06T06:44:55;12.88;;;5.65;;
20283;SDS011;10301;50.832;4.080;2022-07-06T06:47:21;13.50;;;6.13;;
20283;SDS011;10301;50.832;4.080;2022-07-06T06:49:47;12.63;;;5.90;;
20283;SDS011;10301;50.832;4.080;2022-07-06T06:52:13;10.20;;;5.45;;
20283;SDS011;10301;50.832;4.080;2022-07-06T06:54:38;12.50;;;6.00;;
20283;SDS011;10301;50.832;4.080;2022-07-06T06:57:04;10.30;;;6.18;;
20283;SDS011;10301;50.832;4.080;2022-07-06T06:59:30;9.82;;;5.97;;
20283;SDS011;10301;50.832;4.080;2022-07-06T07:01:55;11.73;;;5.70;;
20283;SDS011;10301;50.832;4.080;2022-07-06T07:04:21;14.30;;;6.15;;
20283;SDS011;10301;50.832;4.080;2022-07-06T07:06:47;12.80;;;6.10;;
20283;SDS011;10301;50.832;4.080;2022-07-06T07:09:12;12.75;;;6.15;;
20283;SDS011;10301;50.832;4.080;2022-07-06T07:11:38;15.23;;;6.45;;
20283;SDS011;10301;50.832;4.080;2022-07-06T07:14:03;10.70;;;6.07;;
20283;SDS011;10301;50.832;4.080;2022-07-06T07:16:29;10.43;;;6.55;;
20283;SDS011;10301;50.832;4.080;2022-07-06T07:18:55;12.18;;;6.95;;
20283;SDS011;10301;50.832;4.080;2022-07-06T07:21:21;13.63;;;6.97;;
20283;SDS011;10301;50.832;4.080;2022-07-06T07:23:46;15.85;;;7.82;;
20283;SDS011;10301;50.832;4.080;2022-07-06T07:26:13;14.73;;;7.95;;
20283;SDS011;10301;50.832;4.080;2022-07-06T07:28:39;12.57;;;7.95;;
20283;SDS011;10301;50.832;4.080;2022-07-06T07:31:04;14.43;;;7.60;;
20283;SDS011;10301;50.832;4.080;2022-07-06T07:33:30;14.57;;;7.88;;
20283;SDS011;10301;50.832;4.080;2022-07-06T07:35:56;14.73;;;6.43;;
20283;SDS011;10301;50.832;4.080;2022-07-06T07:38:21;12.38;;;6.25;;
20283;SDS011;10301;50.832;4.080;2022-07-06T07:40:47;11.18;;;6.15;;
20283;SDS011;10301;50.832;4.080;2022-07-06T07:43:13;13.20;;;5.88;;
20283;SDS011;10301;50.832;4.080;2022-07-06T07:45:39;11.13;;;5.80;;
20283;SDS011;10301;50.832;4.080;2022-07-06T07:48:05;8.88;;;4.78;;
20283;SDS011;10301;50.832;4.080;2022-07-06T07:50:30;6.93;;;3.83;;
20283;SDS011;10301;50.832;4.080;2022-07-06T07:52:56;9.38;;;4.30;;
20283;SDS011;10301;50.832;4.080;2022-07-06T07:55:22;7.93;;;3.28;;
20283;SDS011;10301;50.832;4.080;2022-07-06T07:57:47;8.73;;;2.75;;
20283;SDS011;10301;50.832;4.080;2022-07-06T08:00:13;7.80;;;3.45;;
20283;SDS011;10301;50.832;4.080;2022-07-06T08:02:39;9.48;;;3.58;;
20283;SDS011;10301;50.832;4.080;2022-07-06T08:05:05;7.40;;;3.33;;
20283;SDS011;10301;50.832;4.080;2022-07-06T08:07:32;9.20;;;3.05;;
20283;SDS011;10301;50.832;4.080;2022-07-06T08:09:57;10.15;;;2.92;;
20283;SDS011;10301;50.832;4.080;2022-07-06T08:12:23;6.35;;;2.45;;
20283;SDS011;10301;50.832;4.080;2022-07-06T08:14:49;7.25;;;2.65;;
20283;SDS011;10301;50.832;4.080;2022-07-06T08:17:14;6.90;;;2.58;;
20283;SDS011;10301;50.832;4.080;2022-07-06T08:19:40;12.82;;;3.58;;
20283;SDS011;10301;50.832;4.080;2022-07-06T08:22:05;8.07;;;3.75;;
20283;SDS011;10301;50.832;4.080;2022-07-06T08:24:35;8.35;;;3.67;;
20283;SDS011;10301;50.832;4.080;2022-07-06T08:27:01;10.43;;;5.05;;
20283;SDS011;10301;50.832;4.080;2022-07-06T08:29:28;12.60;;;4.65;;
20283;SDS011;10301;50.832;4.080;2022-07-06T08:31:54;9.65;;;3.83;;
20283;SDS011;10301;50.832;4.080;2022-07-06T08:34:19;9.98;;;3.55;;
20283;SDS011;10301;50.832;4.080;2022-07-06T08:36:45;9.95;;;4.10;;
20283;SDS011;10301;50.832;4.080;2022-07-06T08:39:11;7.35;;;3.90;;
20283;SDS011;10301;50.832;4.080;2022-07-06T08:41:36;7.85;;;3.90;;
20283;SDS011;10301;50.832;4.080;2022-07-06T08:44:05;9.50;;;4.30;;
20283;SDS011;10301;50.832;4.080;2022-07-06T08:46:32;8.18;;;3.80;;
20283;SDS011;10301;50.832;4.080;2022-07-06T08:48:58;8.15;;;4.10;;
20283;SDS011;10301;50.832;4.080;2022-07-06T08:51:25;9.25;;;4.07;;
20283;SDS011;10301;50.832;4.080;2022-07-06T08:53:52;8.75;;;4.22;;
20283;SDS011;10301;50.832;4.080;2022-07-06T08:56:19;11.18;;;5.25;;
20283;SDS011;10301;50.832;4.080;2022-07-06T08:58:45;9.45;;;3.38;;
20283;SDS011;10301;50.832;4.080;2022-07-06T09:01:11;9.43;;;3.38;;
20283;SDS011;10301;50.832;4.080;2022-07-06T09:03:40;8.85;;;3.88;;
20283;SDS011;10301;50.832;4.080;2022-07-06T09:06:06;8.38;;;3.92;;
20283;SDS011;10301;50.832;4.080;2022-07-06T09:08:33;9.57;;;4.15;;
20283;SDS011;10301;50.832;4.080;2022-07-06T09:11:01;9.20;;;4.40;;
20283;SDS011;10301;50.832;4.080;2022-07-06T09:13:28;7.80;;;3.60;;
20283;SDS011;10301;50.832;4.080;2022-07-06T09:15:53;10.65;;;4.10;;
20283;SDS011;10301;50.832;4.080;2022-07-06T09:18:20;9.50;;;4.18;;
20283;SDS011;10301;50.832;4.080;2022-07-06T09:20:46;11.20;;;3.70;;
20283;SDS011;10301;50.832;4.080;2022-07-06T09:23:15;8.13;;;3.47;;
20283;SDS011;10301;50.832;4.080;2022-07-06T09:25:42;6.90;;;2.90;;
20283;SDS011;10301;50.832;4.080;2022-07-06T09:28:12;8.68;;;4.00;;
20283;SDS011;10301;50.832;4.080;2022-07-06T09:30:37;7.90;;;3.42;;
20283;SDS011;10301;50.832;4.080;2022-07-06T09:33:05;7.10;;;3.50;;
20283;SDS011;10301;50.832;4.080;2022-07-06T09:35:37;8.43;;;3.20;;
20283;SDS011;10301;50.832;4.080;2022-07-06T09:38:04;7.68;;;3.25;;
20283;SDS011;10301;50.832;4.080;2022-07-06T09:40:37;12.07;;;3.70;;
20283;SDS011;10301;50.832;4.080;2022-07-06T09:43:08;8.45;;;4.13;;
20283;SDS011;10301;50.832;4.080;2022-07-06T09:45:35;7.53;;;4.05;;
20283;SDS011;10301;50.832;4.080;2022-07-06T09:48:14;10.32;;;4.03;;
20283;SDS011;10301;50.832;4.080;2022-07-06T09:50:57;10.60;;;3.53;;
20283;SDS011;10301;50.832;4.080;2022-07-06T09:53:25;8.63;;;3.85;;
20283;SDS011;10301;50.832;4.080;2022-07-06T09:55:52;8.30;;;3.40;;
20283;SDS011;10301;50.832;4.080;2022-07-06T09:58:20;10.68;;;3.70;;
20283;SDS011;10301;50.832;4.080;2022-07-06T10:00:47;9.77;;;3.50;;
20283;SDS011;10301;50.832;4.080;2022-07-06T10:03:14;10.70;;;3.40;;
20283;SDS011;10301;50.832;4.080;2022-07-06T10:05:41;11.93;;;4.03;;
20283;SDS011;10301;50.832;4.080;2022-07-06T10:08:08;7.53;;;3.88;;
20283;SDS011;10301;50.832;4.080;2022-07-06T10:10:36;7.28;;;3.78;;
20283;SDS011;10301;50.832;4.080;2022-07-06T10:13:02;12.13;;;3.92;;
20283;SDS011;10301;50.832;4.080;2022-07-06T10:15:31;7.00;;;3.53;;
20283;SDS011;10301;50.832;4.080;2022-07-06T10:17:58;11.55;;;3.63;;
20283;SDS011;10301;50.832;4.080;2022-07-06T10:20:27;9.00;;;3.58;;
20283;SDS011;10301;50.832;4.080;2022-07-06T10:22:54;8.60;;;3.45;;
20283;SDS011;10301;50.832;4.080;2022-07-06T10:25:23;8.95;;;3.58;;
20283;SDS011;10301;50.832;4.080;2022-07-06T10:27:50;7.38;;;3.70;;
20283;SDS011;10301;50.832;4.080;2022-07-06T10:30:17;9.55;;;4.30;;
20283;SDS011;10301;50.832;4.080;2022-07-06T10:32:45;11.63;;;3.92;;
20283;SDS011;10301;50.832;4.080;2022-07-06T10:35:12;9.68;;;3.55;;
20283;SDS011;10301;50.832;4.080;2022-07-06T10:37:39;12.02;;;3.92;;
20283;SDS011;10301;50.832;4.080;2022-07-06T10:40:05;9.60;;;4.60;;
20283;SDS011;10301;50.832;4.080;2022-07-06T10:42:55;8.60;;;4.68;;
20283;SDS011;10301;50.832;4.080;2022-07-06T10:50:41;7.65;;;4.40;;
20283;SDS011;10301;50.832;4.080;2022-07-06T10:53:16;8.45;;;4.25;;
20283;SDS011;10301;50.832;4.080;2022-07-06T10:55:43;7.80;;;3.60;;
20283;SDS011;10301;50.832;4.080;2022-07-06T10:58:12;8.23;;;3.63;;
20283;SDS011;10301;50.832;4.080;2022-07-06T11:04:15;6.82;;;4.20;;
20283;SDS011;10301;50.832;4.080;2022-07-06T11:11:12;7.50;;;3.65;;
20283;SDS011;10301;50.832;4.080;2022-07-06T11:13:48;9.43;;;4.00;;
20283;SDS011;10301;50.832;4.080;2022-07-06T11:16:24;9.13;;;3.85;;
20283;SDS011;10301;50.832;4.080;2022-07-06T11:24:08;8.60;;;4.00;;
20283;SDS011;10301;50.832;4.080;2022-07-06T11:26:36;12.68;;;4.85;;
20283;SDS011;10301;50.832;4.080;2022-07-06T11:29:06;11.15;;;4.72;;
20283;SDS011;10301;50.832;4.080;2022-07-06T11:31:33;9.60;;;4.40;;
20283;SDS011;10301;50.832;4.080;2022-07-06T11:34:01;9.40;;;4.00;;
20283;SDS011;10301;50.832;4.080;2022-07-06T11:36:28;8.93;;;3.50;;
20283;SDS011;10301;50.832;4.080;2022-07-06T11:38:54;8.70;;;3.88;;
20283;SDS011;10301;50.832;4.080;2022-07-06T11:41:19;10.57;;;4.32;;
20283;SDS011;10301;50.832;4.080;2022-07-06T11:43:46;7.75;;;4.10;;
20283;SDS011;10301;50.832;4.080;2022-07-06T11:48:48;8.68;;;3.25;;
20283;SDS011;10301;50.832;4.080;2022-07-06T11:51:31;8.95;;;3.70;;
20283;SDS011;10301;50.832;4.080;2022-07-06T11:53:58;9.32;;;2.92;;
20283;SDS011;10301;50.832;4.080;2022-07-06T11:56:26;8.18;;;2.67;;
20283;SDS011;10301;50.832;4.080;2022-07-06T11:58:57;6.80;;;2.50;;
20283;SDS011;10301;50.832;4.080;2022-07-06T12:01:25;5.85;;;3.13;;
20283;SDS011;10301;50.832;4.080;2022-07-06T12:03:52;11.60;;;3.22;;
20283;SDS011;10301;50.832;4.080;2022-07-06T12:06:22;7.13;;;3.10;;
20283;SDS011;10301;50.832;4.080;2022-07-06T12:08:53;9.30;;;3.20;;
20283;SDS011;10301;50.832;4.080;2022-07-06T12:11:21;7.63;;;2.97;;
20283;SDS011;10301;50.832;4.080;2022-07-06T12:13:49;8.88;;;2.95;;
20283;SDS011;10301;50.832;4.080;2022-07-06T12:16:16;7.15;;;3.08;;
20283;SDS011;10301;50.832;4.080;2022-07-06T12:18:44;11.93;;;3.25;;
20283;SDS011;10301;50.832;4.080;2022-07-06T12:21:12;12.30;;;3.58;;
20283;SDS011;10301;50.832;4.080;2022-07-06T12:23:45;7.55;;;3.28;;
20283;SDS011;10301;50.832;4.080;2022-07-06T12:26:16;7.53;;;3.17;;
20283;SDS011;10301;50.832;4.080;2022-07-06T12:29:02;8.05;;;3.08;;
20283;SDS011;10301;50.832;4.080;2022-07-06T12:31:34;6.75;;;2.83;;
20283;SDS011;10301;50.832;4.080;2022-07-06T12:34:02;7.95;;;2.63;;
20283;SDS011;10301;50.832;4.080;2022-07-06T12:36:28;8.70;;;2.58;;
20283;SDS011;10301;50.832;4.080;2022-07-06T12:38:54;6.03;;;2.25;;
20283;SDS011;10301;50.832;4.080;2022-07-06T12:41:33;5.38;;;2.30;;
20283;SDS011;10301;50.832;4.080;2022-07-06T12:44:03;10.13;;;2.60;;
20283;SDS011;10301;50.832;4.080;2022-07-06T12:46:32;8.00;;;2.47;;
20283;SDS011;10301;50.832;4.080;2022-07-06T12:49:00;7.65;;;2.92;;
20283;SDS011;10301;50.832;4.080;2022-07-06T12:51:27;8.57;;;2.33;;
20283;SDS011;10301;50.832;4.080;2022-07-06T12:54:11;8.68;;;2.17;;
20283;SDS011;10301;50.832;4.080;2022-07-06T12:56:55;9.00;;;2.20;;
20283;SDS011;10301;50.832;4.080;2022-07-06T12:59:24;5.43;;;2.30;;
20283;SDS011;10301;50.832;4.080;2022-07-06T13:01:51;9.40;;;2.40;;
20283;SDS011;10301;50.832;4.080;2022-07-06T13:04:24;6.90;;;2.88;;
20283;SDS011;10301;50.832;4.080;2022-07-06T13:06:54;8.27;;;2.70;;
20283;SDS011;10301;50.832;4.080;2022-07-06T13:09:21;7.07;;;2.13;;
20283;SDS011;10301;50.832;4.080;2022-07-06T13:11:47;5.82;;;2.50;;
20283;SDS011;10301;50.832;4.080;2022-07-06T13:14:14;6.40;;;2.33;;
20283;SDS011;10301;50.832;4.080;2022-07-06T13:16:41;6.85;;;1.90;;
20283;SDS011;10301;50.832;4.080;2022-07-06T13:19:07;6.70;;;2.53;;
20283;SDS011;10301;50.832;4.080;2022-07-06T13:21:34;5.00;;;2.28;;
20283;SDS011;10301;50.832;4.080;2022-07-06T13:23:59;9.25;;;2.58;;
20283;SDS011;10301;50.832;4.080;2022-07-06T13:26:25;6.20;;;2.03;;
20283;SDS011;10301;50.832;4.080;2022-07-06T13:28:51;5.55;;;2.10;;
20283;SDS011;10301;50.832;4.080;2022-07-06T13:31:17;7.32;;;2.30;;
20283;SDS011;10301;50.832;4.080;2022-07-06T13:33:42;7.30;;;2.05;;
20283;SDS011;10301;50.832;4.080;2022-07-06T13:36:08;7.35;;;1.95;;
20283;SDS011;10301;50.832;4.080;2022-07-06T13:38:34;8.48;;;2.40;;
20283;SDS011;10301;50.832;4.080;2022-07-06T13:40:59;7.72;;;2.92;;
20283;SDS011;10301;50.832;4.080;2022-07-06T13:43:25;8.82;;;2.70;;
20283;SDS011;10301;50.832;4.080;2022-07-06T13:45:50;5.85;;;2.30;;
20283;SDS011;10301;50.832;4.080;2022-07-06T13:48:16;6.53;;;2.33;;
20283;SDS011;10301;50.832;4.080;2022-07-06T13:50:42;8.15;;;2.67;;
20283;SDS011;10301;50.832;4.080;2022-07-06T13:53:07;8.35;;;3.00;;
20283;SDS011;10301;50.832;4.080;2022-07-06T13:55:33;8.02;;;2.22;;
20283;SDS011;10301;50.832;4.080;2022-07-06T13:57:59;5.15;;;2.10;;
20283;SDS011;10301;50.832;4.080;2022-07-06T14:00:25;7.18;;;2.20;;
20283;SDS011;10301;50.832;4.080;2022-07-06T14:02:51;5.70;;;1.80;;
20283;SDS011;10301;50.832;4.080;2022-07-06T14:05:16;10.98;;;2.40;;
20283;SDS011;10301;50.832;4.080;2022-07-06T14:07:42;4.72;;;1.90;;
20283;SDS011;10301;50.832;4.080;2022-07-06T14:10:08;7.38;;;2.53;;
20283;SDS011;10301;50.832;4.080;2022-07-06T14:12:33;9.75;;;2.70;;
20283;SDS011;10301;50.832;4.080;2022-07-06T14:14:59;8.82;;;2.42;;
20283;SDS011;10301;50.832;4.080;2022-07-06T14:17:25;5.50;;;2.33;;
20283;SDS011;10301;50.832;4.080;2022-07-06T14:19:51;5.43;;;2.22;;
20283;SDS011;10301;50.832;4.080;2022-07-06T14:22:16;8.05;;;2.22;;
20283;SDS011;10301;50.832;4.080;2022-07-06T14:24:42;8.35;;;2.40;;
20283;SDS011;10301;50.832;4.080;2022-07-06T14:27:08;7.32;;;2.25;;
20283;SDS011;10301;50.832;4.080;2022-07-06T14:29:34;5.60;;;2.22;;
20283;SDS011;10301;50.832;4.080;2022-07-06T14:31:59;5.45;;;1.90;;
20283;SDS011;10301;50.832;4.080;2022-07-06T14:34:25;5.43;;;1.80;;
20283;SDS011;10301;50.832;4.080;2022-07-06T14:36:51;7.38;;;2.70;;
20283;SDS011;10301;50.832;4.080;2022-07-06T14:39:17;5.63;;;2.25;;
20283;SDS011;10301;50.832;4.080;2022-07-06T14:41:42;6.07;;;2.17;;
20283;SDS011;10301;50.832;4.080;2022-07-06T14:44:08;5.25;;;2.17;;
20283;SDS011;10301;50.832;4.080;2022-07-06T14:46:34;4.28;;;1.80;;
20283;SDS011;10301;50.832;4.080;2022-07-06T14:48:59;5.88;;;2.20;;
20283;SDS011;10301;50.832;4.080;2022-07-06T14:51:26;7.13;;;2.40;;
20283;SDS011;10301;50.832;4.080;2022-07-06T14:53:51;7.72;;;2.60;;
20283;SDS011;10301;50.832;4.080;2022-07-06T14:56:17;8.23;;;2.40;;
20283;SDS011;10301;50.832;4.080;2022-07-06T14:58:43;7.53;;;2.67;;
20283;SDS011;10301;50.832;4.080;2022-07-06T15:01:08;7.25;;;2.90;;
20283;SDS011;10301;50.832;4.080;2022-07-06T15:03:34;7.90;;;2.90;;
20283;SDS011;10301;50.832;4.080;2022-07-06T15:06:00;7.40;;;2.90;;